Time;durP1;ratioP1;P1;durP2;ratioP2;P2;SDS_P1;SDS_P2;PMS_P1;PMS_P2;Temp;Humidity;BMP_temperature;BMP_pressure;BME280_temperature;BME280_humidity;BME280_pressure;Samples;Min_cycle;Max_cycle;Signal;HPM_P1;HPM_P2
2023/03/31 00:00:42;;;;;;;8.07;3.38;;;10.80;93.60;;;;;;5086546;28;20437;-75
2023/03/31 00:03:09;;;;;;;8.57;3.50;;;10.80;92.90;;;;;;5087842;28;20383;-75
2023/03/31 00:05:37;;;;;;;9.20;3.35;;;10.80;93.60;;;;;;5087362;28;20426;-75
2023/03/31 00:08:03;;;;;;;9.60;3.13;;;10.90;91.20;;;;;;5086724;28;20380;-75
2023/03/31 00:10:32;;;;;;;18.30;4.53;;;11.00;90.70;;;;;;5086784;28;20384;-75
2023/03/31 00:12:58;;;;;;;14.75;3.90;;;11.10;89.50;;;;;;5085365;28;20387;-75
2023/03/31 00:15:24;;;;;;;12.57;4.60;;;11.10;89.20;;;;;;5088295;28;20402;-75
2023/03/31 00:17:49;;;;;;;10.50;4.20;;;11.20;87.80;;;;;;5088115;28;20483;-76
2023/03/31 00:20:16;;;;;;;12.50;4.17;;;11.30;86.40;;;;;;5088095;28;20566;-76
2023/03/31 00:22:45;;;;;;;9.45;3.83;;;11.40;84.90;;;;;;5088350;28;20434;-75
2023/03/31 00:25:12;;;;;;;13.60;4.25;;;11.50;80.50;;;;;;5084650;28;20788;-77
2023/03/31 00:27:37;;;;;;;11.75;3.08;;;11.60;79.40;;;;;;5085969;28;20384;-76
2023/03/31 00:30:03;;;;;;;9.80;3.80;;;11.50;79.70;;;;;;5085108;28;20403;-74
2023/03/31 00:32:29;;;;;;;9.02;3.00;;;11.60;79.00;;;;;;5082419;28;20486;-75
2023/03/31 00:34:54;;;;;;;12.35;3.30;;;11.70;76.20;;;;;;5084076;28;20387;-76
2023/03/31 00:37:21;;;;;;;11.00;3.50;;;11.70;75.40;;;;;;5083958;28;20413;-76
2023/03/31 00:39:46;;;;;;;13.20;2.92;;;11.80;74.50;;;;;;5084815;28;20414;-75
2023/03/31 00:42:12;;;;;;;11.35;3.20;;;11.90;73.20;;;;;;5085190;28;20426;-76
2023/03/31 00:45:20;;;;;;;9.00;3.07;;;11.90;72.60;;;;;;5086902;28;20407;-76
2023/03/31 00:48:03;;;;;;;8.40;3.20;;;12.00;70.20;;;;;;5089998;28;20376;-75
2023/03/31 00:50:33;;;;;;;6.43;2.90;;;12.00;70.40;;;;;;5082162;28;20395;-76
2023/03/31 00:53:07;;;;;;;6.18;2.75;;;12.00;71.10;;;;;;5083215;28;20803;-76
2023/03/31 00:55:37;;;;;;;10.33;2.83;;;12.00;70.30;;;;;;5084142;28;20413;-76
2023/03/31 00:58:05;;;;;;;9.23;2.80;;;12.00;71.70;;;;;;5083753;28;20413;-76
2023/03/31 01:00:31;;;;;;;12.20;2.88;;;11.90;74.40;;;;;;5084571;28;20384;-75
2023/03/31 01:03:02;;;;;;;7.38;2.70;;;12.00;74.10;;;;;;5085037;28;20759;-76
2023/03/31 01:05:39;;;;;;;10.15;2.97;;;12.00;73.50;;;;;;5085760;28;20414;-75
2023/03/31 01:08:06;;;;;;;9.48;2.60;;;12.10;74.50;;;;;;5085422;28;20911;-76
2023/03/31 01:10:40;;;;;;;9.70;2.60;;;11.90;76.40;;;;;;5084585;28;20392;-76
2023/03/31 01:13:08;;;;;;;6.50;2.50;;;11.80;77.80;;;;;;5079037;28;20455;-77
2023/03/31 01:15:33;;;;;;;10.73;3.80;;;11.80;79.30;;;;;;5079013;28;20388;-74
2023/03/31 01:17:59;;;;;;;7.10;2.92;;;11.80;80.90;;;;;;5083072;28;20425;-76
2023/03/31 01:20:50;;;;;;;8.23;2.80;;;11.80;80.60;;;;;;5082215;28;20441;-76
2023/03/31 01:23:57;;;;;;;12.68;3.65;;;11.70;80.90;;;;;;5082748;28;20389;-76
2023/03/31 01:26:41;;;;;;;10.30;3.40;;;11.70;82.40;;;;;;5080980;28;20383;-76
2023/03/31 01:29:31;;;;;;;11.77;3.90;;;11.60;83.90;;;;;;5081265;28;20390;-76
2023/03/31 01:32:32;;;;;;;10.30;3.80;;;11.70;84.80;;;;;;5081441;28;20375;-76
2023/03/31 01:35:04;;;;;;;11.83;3.60;;;11.70;85.90;;;;;;5079918;28;20391;-76
2023/03/31 01:37:52;;;;;;;10.07;2.83;;;11.70;87.40;;;;;;5079876;28;20379;-76
2023/03/31 01:40:34;;;;;;;10.75;3.40;;;11.70;87.40;;;;;;5082456;28;20396;-76
2023/03/31 01:43:17;;;;;;;12.88;3.28;;;11.60;90.20;;;;;;5082652;28;20386;-76
2023/03/31 01:46:10;;;;;;;10.43;3.00;;;11.60;92.40;;;;;;5081473;28;20411;-76
2023/03/31 01:48:50;;;;;;;11.27;2.83;;;11.70;91.30;;;;;;5080715;28;20375;-77
2023/03/31 01:51:34;;;;;;;6.72;3.00;;;11.70;91.70;;;;;;5080815;28;20372;-76
2023/03/31 01:54:05;;;;;;;10.70;3.30;;;11.70;91.10;;;;;;5082176;28;20379;-76
2023/03/31 01:56:36;;;;;;;12.05;2.83;;;11.70;92.20;;;;;;5081701;28;20419;-76
2023/03/31 01:59:15;;;;;;;14.00;3.77;;;11.80;89.80;;;;;;5081292;28;20413;-76
2023/03/31 02:02:05;;;;;;;11.75;3.20;;;11.80;89.90;;;;;;5075598;28;20394;-76
2023/03/31 02:04:36;;;;;;;11.88;3.33;;;11.70;90.20;;;;;;5071810;28;20465;-76
2023/03/31 02:07:07;;;;;;;10.95;2.50;;;11.70;91.90;;;;;;5071136;28;20380;-76
2023/03/31 02:09:37;;;;;;;7.95;2.60;;;11.90;88.80;;;;;;5072124;28;20391;-76
2023/03/31 02:12:07;;;;;;;13.75;3.05;;;11.90;89.90;;;;;;5072531;28;20376;-75
2023/03/31 02:14:36;;;;;;;13.80;3.15;;;11.80;90.60;;;;;;5072650;28;20380;-76
2023/03/31 02:17:04;;;;;;;20.52;3.50;;;11.80;91.70;;;;;;5072792;28;20421;-76
2023/03/31 02:19:37;;;;;;;14.23;3.60;;;11.80;92.30;;;;;;5073285;28;20764;-76
2023/03/31 02:22:06;;;;;;;15.65;4.25;;;11.80;93.30;;;;;;5073425;28;20387;-76
2023/03/31 02:24:34;;;;;;;13.83;3.17;;;11.80;94.30;;;;;;5072465;28;20527;-76
2023/03/31 02:27:24;;;;;;;16.63;3.42;;;11.80;92.00;;;;;;5076260;28;20382;-76
2023/03/31 02:29:51;;;;;;;11.82;3.03;;;11.80;92.90;;;;;;5088154;28;20889;-76
2023/03/31 02:32:22;;;;;;;15.37;3.70;;;11.70;94.80;;;;;;5077350;28;20379;-76
2023/03/31 02:34:48;;;;;;;15.43;4.30;;;11.80;93.60;;;;;;5088938;28;20409;-75
2023/03/31 02:37:14;;;;;;;21.40;4.40;;;11.70;95.00;;;;;;5090996;28;20387;-76
2023/03/31 02:39:43;;;;;;;17.10;3.85;;;11.70;96.30;;;;;;5073070;28;20873;-76
2023/03/31 02:42:09;;;;;;;13.88;3.38;;;11.80;95.80;;;;;;5072461;28;20384;-77
2023/03/31 02:44:36;;;;;;;13.93;3.58;;;11.80;94.90;;;;;;5072409;28;20445;-77
2023/03/31 02:47:04;;;;;;;16.05;3.90;;;11.80;93.40;;;;;;5072357;28;20379;-76
2023/03/31 02:49:30;;;;;;;18.73;4.10;;;11.70;94.50;;;;;;5072455;28;20790;-77
2023/03/31 02:52:16;;;;;;;17.03;4.00;;;11.70;94.90;;;;;;5072490;28;20384;-77
2023/03/31 02:55:20;;;;;;;17.17;4.57;;;11.80;95.70;;;;;;5073016;28;20388;-75
2023/03/31 02:58:13;;;;;;;16.47;3.80;;;11.80;96.00;;;;;;5054744;28;20502;-75
2023/03/31 03:01:06;;;;;;;17.75;3.97;;;11.70;96.80;;;;;;5072718;28;20745;-76
2023/03/31 03:03:57;;;;;;;16.63;4.35;;;11.60;98.90;;;;;;5078791;28;20471;-76
2023/03/31 03:06:41;;;;;;;19.20;4.67;;;11.60;99.90;;;;;;5078568;28;20395;-75
2023/03/31 03:09:21;;;;;;;20.67;5.05;;;11.60;99.90;;;;;;5077970;28;20407;-76
2023/03/31 03:12:30;;;;;;;16.08;4.32;;;11.50;99.90;;;;;;5074712;28;20387;-76
2023/03/31 03:15:23;;;;;;;16.27;4.30;;;11.40;99.90;;;;;;5048565;28;20384;-76
2023/03/31 03:17:50;;;;;;;18.10;3.70;;;11.40;99.90;;;;;;5080498;22;20433;-71
2023/03/31 03:20:18;;;;;;;16.45;3.75;;;11.40;99.90;;;;;;5054146;28;20781;-71
2023/03/31 03:22:44;;;;;;;13.77;3.40;;;11.40;99.90;;;;;;5054188;28;20398;-72
2023/03/31 03:25:12;;;;;;;16.47;4.67;;;11.50;99.90;;;;;;5053912;28;20757;-73
2023/03/31 03:27:38;;;;;;;16.73;4.00;;;11.50;99.90;;;;;;5053704;28;20862;-71
2023/03/31 03:30:07;;;;;;;14.23;3.85;;;11.50;99.90;;;;;;5053960;28;20397;-71
2023/03/31 03:32:33;;;;;;;16.63;3.85;;;11.40;99.90;;;;;;5054149;28;20928;-71
2023/03/31 03:35:00;;;;;;;19.30;4.35;;;11.40;99.90;;;;;;5054322;28;20381;-73
2023/03/31 03:37:26;;;;;;;16.90;4.10;;;11.40;99.90;;;;;;5054582;28;20385;-72
2023/03/31 03:39:52;;;;;;;15.90;4.03;;;11.50;99.90;;;;;;5053851;28;20399;-71
2023/03/31 03:42:17;;;;;;;13.50;3.90;;;11.50;99.90;;;;;;5053636;28;20385;-71
2023/03/31 03:44:43;;;;;;;15.93;3.90;;;11.40;99.90;;;;;;5053224;28;20881;-71
2023/03/31 03:47:08;;;;;;;11.07;3.65;;;11.40;99.90;;;;;;5051903;28;20507;-72
2023/03/31 03:49:34;;;;;;;16.48;3.30;;;11.50;99.90;;;;;;5053380;28;20468;-72
2023/03/31 03:51:59;;;;;;;23.10;4.00;;;11.50;99.90;;;;;;5052956;28;20377;-71
2023/03/31 03:54:25;;;;;;;16.37;3.73;;;11.50;99.90;;;;;;5053315;28;20378;-70
2023/03/31 03:56:50;;;;;;;12.97;3.80;;;11.50;99.60;;;;;;5051954;28;20397;-73
2023/03/31 03:59:16;;;;;;;11.03;3.63;;;11.50;99.20;;;;;;5053034;28;20389;-72
2023/03/31 04:01:42;;;;;;;12.52;4.05;;;11.50;98.90;;;;;;5052897;28;20386;-71
2023/03/31 04:04:07;;;;;;;18.75;4.90;;;11.50;99.30;;;;;;5052683;28;20893;-73
2023/03/31 04:06:33;;;;;;;17.60;4.00;;;11.40;99.90;;;;;;5052483;28;20389;-72
2023/03/31 04:08:59;;;;;;;13.57;3.63;;;11.30;99.90;;;;;;5052401;28;20738;-72
2023/03/31 04:11:25;;;;;;;19.05;4.97;;;11.40;99.90;;;;;;5052484;28;20413;-72
2023/03/31 04:13:50;;;;;;;12.73;4.13;;;11.50;99.90;;;;;;5052539;28;20392;-72
2023/03/31 04:16:16;;;;;;;17.42;4.50;;;11.50;99.90;;;;;;5052876;28;20389;-71
2023/03/31 04:18:41;;;;;;;14.00;3.80;;;11.50;99.90;;;;;;5052375;28;20786;-71
2023/03/31 04:21:21;;;;;;;15.57;4.60;;;11.50;99.90;;;;;;5052275;28;20941;-71
2023/03/31 04:23:57;;;;;;;16.23;3.80;;;11.50;99.90;;;;;;5052580;28;20384;-72
2023/03/31 04:26:29;;;;;;;16.63;4.40;;;11.50;99.90;;;;;;5052123;28;20416;-72
2023/03/31 04:28:59;;;;;;;15.57;4.82;;;11.50;99.90;;;;;;5052281;28;20389;-72
2023/03/31 04:31:25;;;;;;;17.55;5.20;;;11.50;99.90;;;;;;5051820;28;20968;-72
2023/03/31 04:33:52;;;;;;;17.17;4.60;;;11.50;99.90;;;;;;5052630;28;20477;-73
2023/03/31 04:36:17;;;;;;;16.90;5.10;;;11.50;99.90;;;;;;5052260;28;20840;-71
2023/03/31 04:38:53;;;;;;;17.42;4.93;;;11.40;99.90;;;;;;5052078;28;20474;-73
2023/03/31 04:41:23;;;;;;;15.13;4.60;;;11.40;99.90;;;;;;5051989;28;20746;-72
2023/03/31 04:43:48;;;;;;;16.08;5.15;;;11.40;99.90;;;;;;5051800;28;20388;-71
2023/03/31 04:46:14;;;;;;;19.10;5.43;;;11.50;99.90;;;;;;5051703;28;20381;-72
2023/03/31 04:48:40;;;;;;;20.27;6.00;;;11.40;99.90;;;;;;5052050;28;20528;-72
2023/03/31 04:51:06;;;;;;;16.33;4.68;;;11.40;99.90;;;;;;5060820;28;20452;-72
2023/03/31 04:53:32;;;;;;;13.23;4.70;;;11.40;99.90;;;;;;5062015;28;20373;-74
2023/03/31 04:55:58;;;;;;;12.93;4.50;;;11.40;99.90;;;;;;5064053;28;20385;-75
2023/03/31 04:58:23;;;;;;;15.70;4.80;;;11.40;99.90;;;;;;5063294;28;20396;-72
2023/03/31 05:00:50;;;;;;;11.23;3.90;;;11.40;99.90;;;;;;5053801;28;20870;-72
2023/03/31 05:03:15;;;;;;;13.93;4.03;;;11.30;99.90;;;;;;5054563;28;20390;-72
2023/03/31 05:05:41;;;;;;;10.43;3.97;;;11.30;99.90;;;;;;5051861;28;20435;-71
2023/03/31 05:08:07;;;;;;;11.50;3.47;;;11.30;99.90;;;;;;5050146;28;20401;-71
2023/03/31 05:10:36;;;;;;;11.73;3.30;;;11.30;98.30;;;;;;5057229;28;20385;-72
2023/03/31 05:13:02;;;;;;;10.23;2.92;;;11.40;96.00;;;;;;5058143;28;20443;-71
2023/03/31 05:15:27;;;;;;;11.50;3.50;;;11.40;93.60;;;;;;5059075;28;20792;-73
2023/03/31 05:17:53;;;;;;;13.02;3.42;;;11.30;94.60;;;;;;5057973;28;20404;-70
2023/03/31 05:20:19;;;;;;;11.70;3.40;;;11.40;93.70;;;;;;5057991;28;20401;-72
2023/03/31 05:22:46;;;;;;;10.40;4.18;;;11.40;93.30;;;;;;5056541;28;20409;-73
2023/03/31 05:25:17;;;;;;;8.10;2.70;;;11.50;92.10;;;;;;5054110;28;20846;-73
2023/03/31 05:27:43;;;;;;;12.13;3.80;;;11.50;91.20;;;;;;5052906;28;20385;-74
2023/03/31 05:30:09;;;;;;;13.90;3.30;;;11.50;91.10;;;;;;5054135;28;20913;-72
2023/03/31 05:32:35;;;;;;;10.70;3.40;;;11.50;91.20;;;;;;5057233;28;20409;-73
2023/03/31 05:35:01;;;;;;;13.70;3.20;;;11.50;90.20;;;;;;5057090;28;20943;-73
2023/03/31 05:37:26;;;;;;;9.57;3.20;;;11.50;91.20;;;;;;5057082;28;20757;-73
2023/03/31 05:39:52;;;;;;;14.97;4.30;;;11.50;91.80;;;;;;5057436;28;20385;-73
2023/03/31 05:42:18;;;;;;;10.93;3.50;;;11.40;93.70;;;;;;5056117;28;20431;-72
2023/03/31 05:44:44;;;;;;;14.43;4.20;;;11.40;95.10;;;;;;5055942;28;20413;-71
2023/03/31 05:47:11;;;;;;;10.25;3.90;;;11.40;94.40;;;;;;5052910;28;20873;-72
2023/03/31 05:49:37;;;;;;;12.02;3.58;;;11.50;93.50;;;;;;5055483;28;20385;-72
2023/03/31 05:52:06;;;;;;;16.90;4.00;;;11.60;91.30;;;;;;5053532;28;20826;-72
2023/03/31 05:54:32;;;;;;;11.32;3.88;;;11.60;92.10;;;;;;5056500;28;20420;-72
2023/03/31 05:56:58;;;;;;;12.52;4.20;;;11.60;93.40;;;;;;5055160;28;20812;-72
2023/03/31 05:59:24;;;;;;;14.23;4.90;;;11.50;94.40;;;;;;5056955;28;20451;-72
2023/03/31 06:01:49;;;;;;;16.47;4.97;;;11.50;96.30;;;;;;5057684;28;20798;-74
2023/03/31 06:04:15;;;;;;;14.33;3.83;;;11.40;97.20;;;;;;5058643;28;20433;-75
2023/03/31 06:06:41;;;;;;;12.93;4.37;;;11.40;97.60;;;;;;5051443;28;20433;-73
2023/03/31 06:09:07;;;;;;;10.65;3.70;;;11.50;97.70;;;;;;5059377;28;20415;-73
2023/03/31 06:11:32;;;;;;;14.77;4.38;;;11.50;97.80;;;;;;5051504;28;20389;-73
2023/03/31 06:13:58;;;;;;;14.07;4.78;;;11.50;98.10;;;;;;5058306;28;20385;-74
2023/03/31 06:16:24;;;;;;;10.43;4.20;;;11.40;99.50;;;;;;5040975;28;20403;-73
2023/03/31 06:18:52;;;;;;;12.43;3.83;;;11.40;99.60;;;;;;5030144;28;20399;-72
2023/03/31 06:21:17;;;;;;;13.68;3.80;;;11.40;96.00;;;;;;5030029;28;20394;-74
2023/03/31 06:23:44;;;;;;;10.95;3.58;;;11.50;94.10;;;;;;5030432;28;20387;-73
2023/03/31 06:26:12;;;;;;;11.07;4.10;;;11.40;95.10;;;;;;5028279;28;20922;-72
2023/03/31 06:28:38;;;;;;;9.98;3.78;;;11.50;95.60;;;;;;5039488;28;20398;-73
2023/03/31 06:31:07;;;;;;;11.87;3.60;;;11.50;95.70;;;;;;5047997;28;20435;-72
2023/03/31 06:33:33;;;;;;;8.77;3.63;;;11.40;95.80;;;;;;5043951;28;20401;-72
2023/03/31 06:36:00;;;;;;;14.52;4.20;;;11.40;96.50;;;;;;5048168;28;20893;-71
2023/03/31 06:38:27;;;;;;;10.45;3.88;;;11.40;97.90;;;;;;5037887;28;20402;-72
2023/03/31 06:40:53;;;;;;;12.88;3.50;;;11.30;98.90;;;;;;5033413;28;20482;-73
2023/03/31 06:43:19;;;;;;;10.15;4.10;;;11.40;98.20;;;;;;5036523;28;20497;-73
2023/03/31 06:45:45;;;;;;;9.02;3.88;;;11.40;99.20;;;;;;5035561;28;20499;-73
2023/03/31 06:48:10;;;;;;;17.23;4.00;;;11.40;99.10;;;;;;5034351;28;20458;-73
2023/03/31 06:50:40;;;;;;;11.73;4.10;;;11.40;98.90;;;;;;5040145;28;20402;-73
2023/03/31 06:53:08;;;;;;;9.50;3.92;;;11.40;99.60;;;;;;5032142;28;20391;-73
2023/03/31 06:55:34;;;;;;;11.13;3.70;;;11.40;98.60;;;;;;5032151;28;20998;-72
2023/03/31 06:58:00;;;;;;;14.25;3.72;;;11.50;96.00;;;;;;5041004;28;20401;-72
2023/03/31 07:00:26;;;;;;;12.68;2.50;;;11.60;93.30;;;;;;5051758;28;20389;-73
2023/03/31 07:02:53;;;;;;;10.00;3.55;;;11.60;92.70;;;;;;5051410;28;20385;-72
2023/03/31 07:05:25;;;;;;;7.97;3.50;;;11.60;93.10;;;;;;5047476;28;20409;-73
2023/03/31 07:07:52;;;;;;;9.73;3.75;;;11.60;92.50;;;;;;5051248;28;20865;-72
2023/03/31 07:10:18;;;;;;;10.85;3.00;;;11.60;94.30;;;;;;5051904;28;21121;-72
2023/03/31 07:12:43;;;;;;;7.28;2.42;;;11.60;93.40;;;;;;5035519;28;20399;-74
2023/03/31 07:15:09;;;;;;;10.63;3.30;;;11.60;93.80;;;;;;5031423;28;20458;-74
2023/03/31 07:17:36;;;;;;;9.63;3.58;;;11.60;93.80;;;;;;5031678;28;20445;-72
2023/03/31 07:20:03;;;;;;;7.43;2.63;;;11.80;92.20;;;;;;5031398;28;20387;-73
2023/03/31 07:22:28;;;;;;;10.20;4.25;;;11.90;91.00;;;;;;5036750;28;20897;-73
2023/03/31 07:24:54;;;;;;;9.93;4.17;;;12.10;87.90;;;;;;5051174;28;20503;-72
2023/03/31 07:27:20;;;;;;;10.07;4.07;;;12.20;86.60;;;;;;5049447;28;20629;-72
2023/03/31 07:29:45;;;;;;;8.07;2.80;;;12.40;84.30;;;;;;5051150;28;20693;-72
2023/03/31 07:32:11;;;;;;;5.32;2.42;;;12.50;80.90;;;;;;5046409;28;20395;-74
2023/03/31 07:34:37;;;;;;;7.88;2.35;;;12.60;78.20;;;;;;5031333;28;20498;-72
2023/03/31 07:37:03;;;;;;;4.82;2.83;;;12.70;75.50;;;;;;5031080;28;20864;-72
2023/03/31 07:39:29;;;;;;;8.27;2.97;;;12.80;72.70;;;;;;5049502;28;20390;-74
2023/03/31 07:41:54;;;;;;;11.00;2.50;;;13.00;70.40;;;;;;5050572;28;20396;-73
2023/03/31 07:44:22;;;;;;;3.15;1.90;;;13.00;70.80;;;;;;5037832;28;20473;-73
2023/03/31 07:46:47;;;;;;;7.40;2.78;;;13.10;69.00;;;;;;5031049;28;20566;-73
2023/03/31 07:49:14;;;;;;;5.80;2.07;;;13.40;66.90;;;;;;5031036;28;20958;-73
2023/03/31 07:51:40;;;;;;;6.90;2.20;;;13.40;64.30;;;;;;5050902;28;20398;-73
2023/03/31 07:54:06;;;;;;;5.43;2.08;;;13.60;62.20;;;;;;5040540;28;20723;-74
2023/03/31 07:56:32;;;;;;;3.90;2.15;;;13.70;59.20;;;;;;5035198;28;20379;-74
2023/03/31 07:58:57;;;;;;;4.07;1.80;;;13.80;58.70;;;;;;5039330;28;20423;-73
2023/03/31 08:01:24;;;;;;;5.10;2.20;;;13.80;60.30;;;;;;5040471;28;20712;-71
2023/03/31 08:03:53;;;;;;;4.63;2.20;;;13.70;59.30;;;;;;5039341;28;20777;-73
2023/03/31 08:06:20;;;;;;;9.10;2.10;;;13.70;57.70;;;;;;5047737;28;20378;-72
2023/03/31 08:08:46;;;;;;;8.27;2.85;;;13.70;57.40;;;;;;5035982;28;20383;-73
2023/03/31 08:11:12;;;;;;;6.30;2.20;;;13.70;58.50;;;;;;5034309;28;20379;-71
2023/03/31 08:13:37;;;;;;;8.27;3.08;;;13.60;57.50;;;;;;5034030;28;20383;-72
2023/03/31 08:16:03;;;;;;;4.78;2.95;;;13.50;57.50;;;;;;5032709;28;20458;-73
2023/03/31 08:18:29;;;;;;;5.57;2.50;;;13.50;58.30;;;;;;5032521;28;20402;-72
2023/03/31 08:20:54;;;;;;;8.63;2.90;;;13.40;59.70;;;;;;5032358;28;20422;-71
2023/03/31 08:23:20;;;;;;;7.97;3.80;;;13.20;61.20;;;;;;5032709;28;20785;-70
2023/03/31 08:25:46;;;;;;;9.70;2.93;;;13.10;63.30;;;;;;5032842;28;20399;-73
2023/03/31 08:28:12;;;;;;;9.60;3.80;;;13.00;65.80;;;;;;5032472;28;20414;-70
2023/03/31 08:30:39;;;;;;;7.17;3.10;;;13.00;66.50;;;;;;5032589;28;20739;-70
2023/03/31 08:33:06;;;;;;;8.07;3.67;;;13.00;67.70;;;;;;5032407;28;20379;-72
2023/03/31 08:35:35;;;;;;;5.55;2.92;;;13.20;68.20;;;;;;5032405;28;20394;-73
2023/03/31 08:38:00;;;;;;;6.32;2.60;;;13.60;66.10;;;;;;5032346;28;20383;-71
2023/03/31 08:40:28;;;;;;;7.60;3.10;;;14.20;61.70;;;;;;5034688;28;20394;-71
2023/03/31 08:43:09;;;;;;;6.38;3.20;;;14.50;57.60;;;;;;5050075;28;20720;-71
2023/03/31 08:45:42;;;;;;;9.13;4.00;;;14.70;55.70;;;;;;5032304;28;20745;-70
2023/03/31 08:48:26;;;;;;;5.50;3.30;;;15.00;54.00;;;;;;5050088;28;20843;-74
2023/03/31 08:51:03;;;;;;;8.18;2.85;;;15.00;53.40;;;;;;5051906;28;20405;-69
2023/03/31 08:53:36;;;;;;;11.45;4.57;;;15.20;53.90;;;;;;5041785;28;20748;-70
2023/03/31 08:56:06;;;;;;;11.43;3.60;;;15.70;49.90;;;;;;5051913;28;20397;-71
2023/03/31 08:58:39;;;;;;;8.10;2.83;;;16.00;45.10;;;;;;5048328;28;20684;-72
2023/03/31 09:01:07;;;;;;;11.32;2.50;;;16.30;45.00;;;;;;5051379;28;20405;-72
2023/03/31 09:03:57;;;;;;;8.97;2.93;;;16.60;42.40;;;;;;5052089;28;20385;-72
2023/03/31 09:06:40;;;;;;;11.98;2.90;;;16.80;40.60;;;;;;5057279;28;20385;-76
2023/03/31 09:09:13;;;;;;;12.02;3.45;;;16.90;37.90;;;;;;5060240;28;20393;-74
2023/03/31 09:11:52;;;;;;;10.95;3.50;;;16.90;37.90;;;;;;5058744;28;20410;-75
2023/03/31 09:14:39;;;;;;;16.38;3.70;;;16.70;35.40;;;;;;5058113;28;20439;-75
2023/03/31 09:17:23;;;;;;;13.18;3.40;;;16.60;36.10;;;;;;5070685;22;20463;-76
2023/03/31 09:19:53;;;;;;;14.07;3.53;;;16.30;34.90;;;;;;5041133;28;20759;-76
2023/03/31 09:22:23;;;;;;;13.70;2.95;;;16.00;34.70;;;;;;5041775;28;20590;-74
2023/03/31 09:25:18;;;;;;;14.90;3.30;;;15.70;38.40;;;;;;5045528;28;20403;-77
2023/03/31 09:27:46;;;;;;;14.77;3.10;;;15.40;42.50;;;;;;5027254;28;20410;-77
2023/03/31 09:30:19;;;;;;;14.93;3.88;;;15.20;38.30;;;;;;5033146;28;20379;-76
2023/03/31 09:32:48;;;;;;;12.38;3.53;;;15.20;40.10;;;;;;5032375;28;20466;-76
2023/03/31 09:35:24;;;;;;;14.23;3.63;;;15.30;39.80;;;;;;5032369;28;20430;-77
2023/03/31 09:37:50;;;;;;;21.92;4.25;;;15.40;36.60;;;;;;5032384;28;20387;-77
2023/03/31 09:40:22;;;;;;;12.95;3.30;;;15.50;35.20;;;;;;5031074;28;20399;-76
2023/03/31 09:42:56;;;;;;;14.10;3.58;;;15.70;34.10;;;;;;5032111;28;20384;-75
2023/03/31 09:45:22;;;;;;;17.10;3.38;;;15.90;34.00;;;;;;5032993;28;20398;-76
2023/03/31 09:47:54;;;;;;;12.35;3.35;;;16.10;34.30;;;;;;5031976;28;20874;-77
2023/03/31 09:50:21;;;;;;;12.80;3.25;;;16.30;31.80;;;;;;5032678;28;20389;-76
2023/03/31 09:52:57;;;;;;;12.70;3.50;;;16.40;30.50;;;;;;5032427;28;20531;-78
2023/03/31 09:55:32;;;;;;;13.45;3.83;;;16.50;31.10;;;;;;5032498;28;20375;-76
2023/03/31 09:58:00;;;;;;;14.30;3.80;;;16.70;30.10;;;;;;5032399;28;20437;-77
2023/03/31 10:00:27;;;;;;;16.60;3.65;;;16.80;29.20;;;;;;5032599;28;20770;-77
2023/03/31 10:03:01;;;;;;;13.73;3.50;;;16.50;28.40;;;;;;5031071;28;20405;-76
2023/03/31 10:05:47;;;;;;;13.75;3.50;;;15.90;31.60;;;;;;5033315;28;20394;-76
2023/03/31 10:08:15;;;;;;;17.77;3.60;;;15.40;34.70;;;;;;5032267;28;20780;-77
2023/03/31 10:10:54;;;;;;;17.00;3.47;;;15.20;36.00;;;;;;5032910;28;20930;-76
2023/03/31 10:13:24;;;;;;;12.10;3.30;;;15.30;35.00;;;;;;5032769;28;20383;-77
2023/03/31 10:16:00;;;;;;;15.55;3.22;;;15.50;34.10;;;;;;5031632;28;20815;-76
2023/03/31 10:18:36;;;;;;;16.00;4.20;;;15.70;32.90;;;;;;5031795;28;20422;-77
2023/03/31 10:21:04;;;;;;;18.83;4.50;;;15.90;33.10;;;;;;5031361;28;20414;-75
2023/03/31 10:23:32;;;;;;;16.35;3.50;;;16.10;32.30;;;;;;5032844;28;20398;-75
2023/03/31 10:25:59;;;;;;;13.48;3.40;;;16.40;29.90;;;;;;5035256;28;20403;-75
2023/03/31 10:28:25;;;;;;;15.53;4.30;;;16.50;29.90;;;;;;5035159;28;20468;-76
2023/03/31 10:31:00;;;;;;;14.40;3.47;;;16.80;31.30;;;;;;5037105;28;20411;-76
2023/03/31 10:33:28;;;;;;;15.88;4.10;;;17.00;27.80;;;;;;5036486;28;20399;-76
2023/03/31 10:35:58;;;;;;;16.60;3.90;;;17.10;28.00;;;;;;5035998;28;20390;-76
2023/03/31 10:38:29;;;;;;;15.50;3.70;;;17.20;28.10;;;;;;5035524;28;20399;-76
2023/03/31 10:40:57;;;;;;;14.30;3.90;;;17.40;28.60;;;;;;5041972;28;20395;-76
2023/03/31 10:43:48;;;;;;;13.60;3.92;;;17.80;25.40;;;;;;5043187;28;20395;-76
2023/03/31 10:46:14;;;;;;;15.50;3.28;;;18.00;25.90;;;;;;5041190;28;20410;-74
2023/03/31 10:48:43;;;;;;;12.50;3.60;;;18.10;22.50;;;;;;5042518;28;20728;-76
2023/03/31 10:51:19;;;;;;;16.88;4.00;;;18.00;23.50;;;;;;5045168;28;20415;-75
2023/03/31 10:53:50;;;;;;;14.02;4.10;;;17.80;24.00;;;;;;5051615;28;20417;-76
2023/03/31 10:56:37;;;;;;;21.80;4.07;;;17.30;25.40;;;;;;5049829;28;20394;-75
2023/03/31 10:59:11;;;;;;;8.45;2.17;;;16.70;33.30;;;;;;5046209;28;20447;-74
2023/03/31 11:01:55;;;;;;;13.45;2.50;;;14.70;45.60;;;;;;5044412;28;20403;-74
2023/03/31 11:04:39;;;;;;;9.38;2.10;;;13.50;62.50;;;;;;5035308;28;20913;-75
2023/03/31 11:08:02;;;;;;;6.63;2.20;;;13.10;65.40;;;;;;5034630;28;20423;-75
2023/03/31 11:10:43;;;;;;;8.02;2.08;;;13.00;67.00;;;;;;5012260;28;20408;-75
2023/03/31 11:13:18;;;;;;;7.43;2.07;;;13.10;62.90;;;;;;5012230;28;20401;-75
2023/03/31 11:15:57;;;;;;;9.70;1.98;;;13.30;60.10;;;;;;5026562;28;20391;-75
2023/03/31 11:18:42;;;;;;;8.13;2.10;;;13.70;57.40;;;;;;5034088;28;20390;-75
2023/03/31 11:21:32;;;;;;;6.90;1.92;;;14.00;54.20;;;;;;5033773;28;20409;-76
2023/03/31 11:24:03;;;;;;;7.95;2.08;;;14.30;45.90;;;;;;5034134;28;20472;-76
2023/03/31 11:26:47;;;;;;;10.25;2.20;;;14.60;46.10;;;;;;5034011;28;20391;-75
2023/03/31 11:29:18;;;;;;;10.68;2.50;;;14.70;42.10;;;;;;5034655;28;20854;-75
2023/03/31 11:31:53;;;;;;;12.60;2.80;;;14.90;45.90;;;;;;5033411;28;20513;-75
2023/03/31 11:34:41;;;;;;;10.35;2.35;;;15.20;39.90;;;;;;5031473;28;20441;-75
2023/03/31 11:37:18;;;;;;;11.82;2.40;;;15.30;38.80;;;;;;5034410;28;20586;-75
2023/03/31 11:40:06;;;;;;;6.00;1.80;;;15.60;39.00;;;;;;5037460;28;20534;-73
2023/03/31 11:43:04;;;;;;;7.22;2.30;;;15.80;33.80;;;;;;5043110;28;20391;-73
2023/03/31 11:45:39;;;;;;;9.00;2.30;;;15.80;32.90;;;;;;5031851;28;20407;-75
2023/03/31 11:48:15;;;;;;;7.22;2.00;;;15.80;32.50;;;;;;5033335;28;20383;-75
2023/03/31 11:50:44;;;;;;;9.02;2.25;;;15.80;29.80;;;;;;5033497;28;20450;-75
2023/03/31 11:53:26;;;;;;;11.40;2.50;;;15.90;28.80;;;;;;5033698;28;20394;-75
2023/03/31 11:55:56;;;;;;;9.52;2.60;;;16.00;28.40;;;;;;5034192;28;20950;-74
2023/03/31 11:58:28;;;;;;;8.35;2.53;;;16.10;29.20;;;;;;5033324;28;20894;-75
2023/03/31 12:01:09;;;;;;;9.50;2.60;;;16.30;28.90;;;;;;5033679;28;20385;-75
2023/03/31 12:03:45;;;;;;;8.75;2.30;;;16.70;28.90;;;;;;5034557;28;20383;-74
2023/03/31 12:06:18;;;;;;;10.15;2.90;;;17.10;25.20;;;;;;5034501;28;20436;-74
2023/03/31 12:09:11;;;;;;;14.02;2.75;;;17.20;26.60;;;;;;5035497;28;20426;-74
2023/03/31 12:11:51;;;;;;;12.80;3.25;;;17.20;26.10;;;;;;5036577;28;20891;-75
2023/03/31 12:14:35;;;;;;;11.63;3.10;;;16.90;25.50;;;;;;5040195;28;20386;-74
2023/03/31 12:17:03;;;;;;;10.57;2.90;;;16.40;28.80;;;;;;5037272;28;20791;-75
2023/03/31 12:19:45;;;;;;;11.25;3.40;;;16.10;30.60;;;;;;5042968;28;20458;-74
2023/03/31 12:22:32;;;;;;;11.93;3.40;;;15.80;32.50;;;;;;5044249;28;20450;-76
2023/03/31 12:24:58;;;;;;;22.05;3.40;;;15.60;38.40;;;;;;5034457;28;20518;-76
2023/03/31 12:27:34;;;;;;;15.82;3.53;;;15.50;39.70;;;;;;5034646;28;20419;-75
2023/03/31 12:30:01;;;;;;;20.38;4.10;;;15.70;42.10;;;;;;5034333;28;20394;-74
2023/03/31 12:32:32;;;;;;;13.45;3.75;;;16.00;41.90;;;;;;5032850;28;20466;-77
2023/03/31 12:35:06;;;;;;;15.10;3.55;;;16.00;38.20;;;;;;5032948;28;20376;-75
2023/03/31 12:37:52;;;;;;;21.67;4.00;;;15.80;38.80;;;;;;5032281;28;20402;-77
2023/03/31 12:40:38;;;;;;;17.85;4.07;;;15.60;41.50;;;;;;5033825;28;20391;-76
2023/03/31 12:43:33;;;;;;;13.70;3.75;;;15.60;41.40;;;;;;5033423;28;20874;-76
2023/03/31 12:46:18;;;;;;;15.45;3.63;;;16.00;40.50;;;;;;5031468;28;20403;-75
2023/03/31 12:49:01;;;;;;;18.23;5.18;;;16.50;37.80;;;;;;5032250;28;20937;-76
2023/03/31 12:51:26;;;;;;;20.98;5.20;;;16.80;34.70;;;;;;5036549;28;20863;-76
2023/03/31 12:54:27;;;;;;;16.47;3.90;;;17.10;29.50;;;;;;5044933;28;20390;-74
2023/03/31 12:57:04;;;;;;;12.88;3.75;;;17.30;24.10;;;;;;5022064;28;20407;-74
2023/03/31 12:59:41;;;;;;;13.05;3.58;;;17.40;24.20;;;;;;5033428;28;20394;-76
2023/03/31 13:02:15;;;;;;;14.10;3.40;;;17.40;22.70;;;;;;5032630;28;20776;-76
2023/03/31 13:04:40;;;;;;;9.93;3.42;;;17.40;22.10;;;;;;5032494;28;20395;-74